Time;durP1;ratioP1;P1;durP2;ratioP2;P2;SDS_P1;SDS_P2;PMS_P1;PMS_P2;Temp;Humidity;BMP_temperature;BMP_pressure;BME280_temperature;BME280_humidity;BME280_pressure;Samples;Min_cycle;Max_cycle;Signal;HPM_P1;HPM_P2
2024/04/07 00:00:22;;;;;;;2.00;1.13;;;17.20;91.90;;;;;;4998559;28;21083;-46
2024/04/07 00:02:51;;;;;;;2.20;1.20;;;17.20;91.10;;;;;;4993212;28;20533;-46
2024/04/07 00:05:17;;;;;;;3.60;1.70;;;17.20;92.00;;;;;;4998084;28;20488;-47
2024/04/07 00:07:44;;;;;;;2.13;1.10;;;17.20;92.10;;;;;;4990275;28;20468;-46
2024/04/07 00:10:13;;;;;;;2.70;1.40;;;17.20;92.30;;;;;;5000864;28;20461;-46
2024/04/07 00:12:41;;;;;;;1.83;0.90;;;17.20;91.70;;;;;;4995253;28;20488;-46
2024/04/07 00:15:09;;;;;;;1.67;0.93;;;17.20;91.80;;;;;;4990413;28;20461;-46
2024/04/07 00:17:36;;;;;;;4.50;1.10;;;17.20;91.80;;;;;;4996026;28;20457;-46
2024/04/07 00:20:03;;;;;;;1.70;1.03;;;17.20;91.90;;;;;;4990426;28;20465;-46
2024/04/07 00:22:30;;;;;;;2.87;1.00;;;17.20;92.20;;;;;;4992029;28;20438;-46
2024/04/07 00:24:57;;;;;;;2.00;1.00;;;17.20;91.90;;;;;;4990176;28;20453;-46
2024/04/07 00:27:26;;;;;;;1.97;1.10;;;17.20;91.60;;;;;;4991402;28;20548;-46
2024/04/07 00:29:52;;;;;;;1.13;0.90;;;17.20;91.70;;;;;;5002549;28;20993;-46
2024/04/07 00:32:21;;;;;;;1.57;1.10;;;17.20;92.10;;;;;;4972648;28;20462;-47
2024/04/07 00:34:48;;;;;;;1.33;1.10;;;17.20;91.90;;;;;;4991283;28;20434;-46
2024/04/07 00:37:16;;;;;;;1.63;0.90;;;17.20;92.20;;;;;;4993435;28;20461;-46
2024/04/07 00:39:42;;;;;;;3.10;1.00;;;17.20;91.60;;;;;;4997333;28;20545;-46
2024/04/07 00:42:10;;;;;;;2.60;1.23;;;17.20;92.20;;;;;;4989852;28;20541;-46
2024/04/07 00:44:37;;;;;;;1.80;1.10;;;17.20;92.00;;;;;;4999975;28;20553;-47
2024/04/07 00:47:05;;;;;;;5.80;1.33;;;17.20;92.20;;;;;;4996701;28;20440;-46
2024/04/07 00:49:34;;;;;;;3.50;1.00;;;17.20;92.20;;;;;;4989985;28;20454;-46
2024/04/07 00:52:01;;;;;;;1.73;0.77;;;17.20;92.00;;;;;;4989750;28;20503;-46
2024/04/07 00:54:28;;;;;;;3.00;1.30;;;17.20;92.50;;;;;;4997921;28;20509;-46
2024/04/07 00:56:56;;;;;;;2.10;1.23;;;17.20;92.10;;;;;;4989916;28;20438;-46
2024/04/07 00:59:22;;;;;;;1.50;1.20;;;17.20;92.50;;;;;;4995637;28;20468;-46
2024/04/07 01:01:50;;;;;;;1.40;1.00;;;17.20;92.70;;;;;;4992353;28;20453;-46
2024/04/07 01:04:16;;;;;;;1.83;1.33;;;17.20;92.60;;;;;;4999414;28;20525;-46
2024/04/07 01:06:45;;;;;;;2.43;0.87;;;17.20;92.70;;;;;;4996830;28;20430;-46
2024/04/07 01:09:11;;;;;;;1.83;0.90;;;17.20;93.00;;;;;;5001530;28;20523;-45
2024/04/07 01:11:38;;;;;;;1.70;1.00;;;17.20;92.90;;;;;;4997239;28;20661;-47
2024/04/07 01:14:04;;;;;;;1.90;1.03;;;17.20;93.10;;;;;;4990186;28;20450;-46
2024/04/07 01:16:31;;;;;;;1.70;1.27;;;17.20;93.10;;;;;;5004259;28;20520;-46
2024/04/07 01:18:58;;;;;;;1.40;1.23;;;17.20;93.00;;;;;;4994397;28;20477;-46
2024/04/07 01:21:26;;;;;;;2.30;1.10;;;17.20;92.90;;;;;;4997069;28;20438;-46
2024/04/07 01:23:54;;;;;;;3.53;1.00;;;17.20;93.00;;;;;;4999415;28;20437;-46
2024/04/07 01:26:23;;;;;;;2.27;0.80;;;17.20;93.30;;;;;;4999184;28;20433;-46
2024/04/07 01:28:50;;;;;;;2.03;1.03;;;17.20;93.40;;;;;;4999541;28;20504;-46
2024/04/07 01:31:17;;;;;;;1.50;1.30;;;17.20;93.40;;;;;;4991691;28;20500;-46
2024/04/07 01:33:43;;;;;;;1.30;0.97;;;17.20;93.30;;;;;;4989426;28;20572;-45
2024/04/07 01:36:11;;;;;;;1.20;0.90;;;17.20;93.30;;;;;;5003715;28;20960;-46
2024/04/07 01:38:37;;;;;;;3.50;1.33;;;17.20;93.30;;;;;;4993832;28;20823;-46
2024/04/07 01:41:06;;;;;;;2.00;1.07;;;17.20;93.30;;;;;;4993428;28;20433;-46
2024/04/07 01:43:32;;;;;;;1.20;0.83;;;17.20;93.30;;;;;;5014800;28;20512;-46
2024/04/07 01:45:59;;;;;;;1.60;1.10;;;17.20;93.20;;;;;;4989515;28;20521;-46
2024/04/07 01:48:25;;;;;;;1.60;1.10;;;17.20;93.40;;;;;;4995970;28;20517;-46
2024/04/07 01:50:52;;;;;;;1.63;1.23;;;17.20;93.40;;;;;;4992494;28;20465;-46
2024/04/07 01:53:18;;;;;;;1.47;1.37;;;17.20;93.40;;;;;;4993644;28;20438;-46
2024/04/07 01:55:45;;;;;;;1.20;0.97;;;17.20;93.50;;;;;;4997627;28;20425;-46
2024/04/07 01:58:13;;;;;;;3.80;1.50;;;17.20;93.50;;;;;;4997609;28;20600;-46
2024/04/07 02:00:40;;;;;;;1.40;0.90;;;17.20;93.60;;;;;;4992286;28;20605;-46
2024/04/07 02:03:07;;;;;;;3.57;1.17;;;17.20;93.50;;;;;;4992312;28;20462;-46
2024/04/07 02:05:34;;;;;;;1.60;0.83;;;17.20;93.60;;;;;;5002048;28;20442;-46
2024/04/07 02:08:03;;;;;;;1.50;0.90;;;17.20;93.60;;;;;;5000150;28;20842;-46
2024/04/07 02:10:30;;;;;;;1.23;0.90;;;17.20;93.40;;;;;;4992933;28;20476;-46
2024/04/07 02:12:56;;;;;;;2.00;0.97;;;17.20;93.60;;;;;;4993697;28;20481;-46
2024/04/07 02:15:25;;;;;;;2.83;1.10;;;17.20;93.60;;;;;;4998054;28;20472;-46
2024/04/07 02:17:51;;;;;;;1.53;0.90;;;17.20;93.50;;;;;;4998740;28;20465;-46
2024/04/07 02:20:18;;;;;;;1.57;0.97;;;17.20;93.50;;;;;;5000065;28;20596;-46
2024/04/07 02:22:45;;;;;;;1.30;1.03;;;17.20;93.50;;;;;;5001182;28;20484;-46
2024/04/07 02:25:12;;;;;;;1.60;1.20;;;17.20;93.50;;;;;;4995693;28;20930;-46
2024/04/07 02:27:38;;;;;;;3.80;1.03;;;17.20;93.60;;;;;;5004435;28;20886;-46
2024/04/07 02:30:08;;;;;;;1.43;1.10;;;17.20;93.70;;;;;;5000110;28;21040;-46
2024/04/07 02:32:35;;;;;;;1.90;1.07;;;17.20;93.80;;;;;;5000235;28;20438;-46
2024/04/07 02:35:03;;;;;;;2.17;1.03;;;17.20;93.80;;;;;;5005411;28;20487;-46
2024/04/07 02:37:30;;;;;;;1.37;1.00;;;17.20;93.80;;;;;;5001005;28;20545;-45
2024/04/07 02:39:57;;;;;;;1.30;0.93;;;17.20;93.90;;;;;;4995033;28;20539;-46
2024/04/07 02:42:23;;;;;;;1.93;1.17;;;17.20;93.90;;;;;;4990494;28;20470;-46
2024/04/07 02:50:21;;;;;;;1.97;1.10;;;17.10;93.90;;;;;;4991332;28;20540;-46
2024/04/07 02:52:48;;;;;;;1.53;1.10;;;17.20;93.90;;;;;;4991044;28;20441;-46
2024/04/07 02:55:15;;;;;;;2.50;0.97;;;17.10;93.90;;;;;;4999333;28;20484;-46
2024/04/07 02:57:42;;;;;;;1.73;0.80;;;17.10;93.90;;;;;;4991953;28;20622;-46
2024/04/07 03:00:13;;;;;;;2.20;1.13;;;17.20;94.00;;;;;;4998900;28;20458;-47
2024/04/07 03:02:42;;;;;;;1.87;1.03;;;17.10;93.90;;;;;;4992331;28;20517;-47
2024/04/07 03:05:09;;;;;;;1.40;0.93;;;17.10;94.00;;;;;;4991673;28;20430;-47
2024/04/07 03:07:36;;;;;;;1.60;0.90;;;17.10;94.00;;;;;;4991709;28;20531;-46
2024/04/07 03:10:03;;;;;;;2.03;1.00;;;17.10;94.00;;;;;;4999502;28;20489;-46
2024/04/07 03:12:29;;;;;;;1.30;1.13;;;17.10;94.10;;;;;;4998404;28;20517;-46
2024/04/07 03:14:57;;;;;;;1.97;1.37;;;17.10;94.10;;;;;;4991221;28;20440;-46
2024/04/07 03:17:23;;;;;;;1.90;1.30;;;17.10;94.00;;;;;;4990978;28;20473;-49
2024/04/07 03:19:52;;;;;;;1.60;0.90;;;17.10;94.10;;;;;;4997529;28;20454;-47
2024/04/07 03:22:18;;;;;;;2.40;1.40;;;17.10;94.00;;;;;;5001440;28;20873;-46
2024/04/07 03:24:45;;;;;;;2.77;1.17;;;17.10;94.10;;;;;;5000211;28;20532;-47
2024/04/07 03:27:12;;;;;;;2.00;1.20;;;17.10;94.10;;;;;;4995177;28;20493;-46
2024/04/07 03:29:39;;;;;;;3.10;0.80;;;17.10;94.10;;;;;;4989558;28;20549;-47
2024/04/07 03:32:07;;;;;;;2.80;1.40;;;17.10;94.20;;;;;;4991030;28;20795;-46
2024/04/07 03:34:33;;;;;;;1.37;1.03;;;17.10;94.20;;;;;;4998541;28;20475;-46
2024/04/07 03:37:04;;;;;;;2.80;1.23;;;17.10;94.20;;;;;;4991207;28;20446;-49
2024/04/07 03:39:31;;;;;;;1.77;1.30;;;17.10;94.20;;;;;;4990400;28;20625;-46
2024/04/07 03:41:58;;;;;;;3.73;0.90;;;17.10;94.20;;;;;;4995134;28;20434;-46
2024/04/07 03:44:27;;;;;;;1.60;1.10;;;17.10;94.20;;;;;;4990640;28;20541;-45
2024/04/07 03:46:57;;;;;;;1.63;1.00;;;17.10;94.20;;;;;;4990750;28;20429;-46
2024/04/07 03:49:24;;;;;;;1.40;1.10;;;17.10;94.30;;;;;;4998468;28;21047;-46
2024/04/07 03:51:51;;;;;;;2.50;1.27;;;17.10;94.30;;;;;;4993055;28;20449;-48
2024/04/07 03:54:20;;;;;;;3.97;1.23;;;17.10;94.20;;;;;;4990400;28;20458;-46
2024/04/07 03:56:47;;;;;;;3.30;1.30;;;17.10;94.30;;;;;;5002982;28;20537;-47
2024/04/07 03:59:14;;;;;;;2.20;1.50;;;17.10;94.30;;;;;;4990333;28;20484;-46
2024/04/07 04:01:41;;;;;;;2.37;1.10;;;17.10;94.30;;;;;;4991197;28;20525;-46
2024/04/07 04:04:09;;;;;;;1.97;0.90;;;17.10;94.30;;;;;;4996477;28;20496;-46
2024/04/07 04:06:36;;;;;;;2.23;1.10;;;17.10;94.30;;;;;;5004695;28;20946;-46
2024/04/07 04:09:05;;;;;;;3.50;1.30;;;17.10;94.20;;;;;;4999065;28;20958;-46
2024/04/07 04:11:34;;;;;;;1.47;0.90;;;17.10;94.30;;;;;;4990077;28;20465;-46
2024/04/07 04:14:01;;;;;;;1.57;1.10;;;17.10;94.30;;;;;;5001863;28;20480;-47
2024/04/07 04:16:28;;;;;;;1.27;0.80;;;17.10;94.30;;;;;;4993202;28;20465;-46
2024/04/07 04:18:55;;;;;;;1.40;1.20;;;17.10;94.40;;;;;;5000461;28;20849;-48
2024/04/07 04:21:22;;;;;;;2.97;1.03;;;17.00;94.30;;;;;;5000015;28;20525;-47
2024/04/07 04:23:49;;;;;;;2.23;1.20;;;17.10;94.40;;;;;;4990764;28;20445;-45
2024/04/07 04:26:15;;;;;;;2.03;0.90;;;17.10;94.40;;;;;;4998450;28;20814;-50
2024/04/07 04:28:43;;;;;;;2.40;1.10;;;17.10;94.40;;;;;;4998911;28;20923;-46
2024/04/07 04:31:10;;;;;;;1.63;0.90;;;17.10;94.40;;;;;;5000865;28;20429;-46
2024/04/07 04:33:38;;;;;;;2.00;1.00;;;17.10;94.40;;;;;;4998672;28;20893;-47
2024/04/07 04:36:11;;;;;;;1.20;1.00;;;17.10;94.40;;;;;;5004995;28;20433;-46
2024/04/07 04:38:38;;;;;;;1.77;1.13;;;17.00;94.30;;;;;;4992948;28;20504;-46
2024/04/07 04:41:05;;;;;;;2.93;1.07;;;17.10;94.40;;;;;;4994157;28;20512;-45
2024/04/07 04:43:32;;;;;;;2.60;1.40;;;17.00;94.40;;;;;;4999961;28;20562;-47
2024/04/07 04:46:06;;;;;;;1.70;1.07;;;17.00;94.40;;;;;;4993323;28;20465;-46
2024/04/07 04:48:34;;;;;;;1.93;1.53;;;17.00;94.40;;;;;;5007683;28;20444;-47
2024/04/07 04:51:01;;;;;;;1.13;0.93;;;17.00;94.30;;;;;;4995176;28;20458;-46
2024/04/07 04:53:28;;;;;;;1.73;1.00;;;17.00;94.40;;;;;;4990114;28;20434;-47
2024/04/07 04:55:58;;;;;;;2.00;1.13;;;17.00;94.30;;;;;;4991754;28;20484;-47
2024/04/07 04:58:26;;;;;;;1.80;1.30;;;17.00;94.30;;;;;;4993965;28;20532;-46
2024/04/07 05:00:52;;;;;;;1.47;1.00;;;17.00;94.40;;;;;;5000469;28;21010;-46
2024/04/07 05:03:20;;;;;;;2.60;0.97;;;17.00;94.40;;;;;;4990002;28;20529;-46
2024/04/07 05:05:47;;;;;;;1.53;1.10;;;17.00;94.40;;;;;;4989483;28;20514;-46
2024/04/07 05:08:14;;;;;;;1.30;1.10;;;17.00;94.40;;;;;;4992153;28;21010;-46
2024/04/07 05:10:40;;;;;;;1.97;1.30;;;17.00;94.40;;;;;;4997818;28;20532;-46
2024/04/07 05:13:08;;;;;;;1.47;1.23;;;17.00;94.40;;;;;;4990722;28;20451;-46
2024/04/07 05:15:34;;;;;;;1.20;0.90;;;17.00;94.40;;;;;;4998024;28;21127;-46
2024/04/07 05:18:01;;;;;;;1.40;0.90;;;17.00;94.40;;;;;;4990042;28;20446;-46
2024/04/07 05:20:30;;;;;;;2.43;1.30;;;17.00;94.40;;;;;;5000633;28;20448;-46
2024/04/07 05:22:57;;;;;;;2.10;1.07;;;17.00;94.50;;;;;;4992017;28;20464;-46
2024/04/07 05:25:25;;;;;;;1.47;1.10;;;17.00;94.40;;;;;;4993699;28;20434;-46
2024/04/07 05:27:52;;;;;;;7.40;1.43;;;17.00;94.50;;;;;;4993515;28;20531;-46
2024/04/07 05:30:18;;;;;;;2.23;1.00;;;17.00;94.40;;;;;;4993287;28;20457;-46
2024/04/07 05:32:45;;;;;;;1.30;0.90;;;17.00;94.50;;;;;;4999026;28;20528;-46
2024/04/07 05:35:11;;;;;;;1.70;1.27;;;17.00;94.50;;;;;;5000993;28;20529;-46
2024/04/07 05:37:40;;;;;;;1.53;0.87;;;17.00;94.60;;;;;;4983597;28;20503;-46
2024/04/07 05:40:07;;;;;;;1.40;0.93;;;17.00;94.60;;;;;;5001514;28;20563;-47
2024/04/07 05:42:35;;;;;;;1.00;0.80;;;17.00;94.60;;;;;;4990681;28;20429;-46
2024/04/07 05:45:01;;;;;;;1.87;1.20;;;17.00;94.50;;;;;;5005913;28;20942;-45
2024/04/07 05:47:28;;;;;;;2.63;1.03;;;17.00;94.50;;;;;;5002277;28;20433;-45
2024/04/07 05:49:54;;;;;;;1.77;0.80;;;17.00;94.50;;;;;;4996655;28;20552;-46
2024/04/07 05:52:21;;;;;;;1.20;1.07;;;17.00;94.50;;;;;;5000473;28;20449;-46
2024/04/07 05:54:49;;;;;;;1.20;0.80;;;17.00;94.50;;;;;;5002447;28;20468;-45
2024/04/07 05:57:16;;;;;;;1.10;0.90;;;17.00;94.50;;;;;;4999534;28;20448;-46
2024/04/07 05:59:42;;;;;;;1.80;0.93;;;17.00;94.40;;;;;;5006325;28;20620;-46
2024/04/07 06:02:09;;;;;;;2.80;1.20;;;17.00;94.50;;;;;;5005583;28;20522;-46
2024/04/07 06:04:35;;;;;;;2.33;1.17;;;17.00;94.40;;;;;;4987832;28;20487;-46
2024/04/07 06:07:03;;;;;;;1.10;0.93;;;17.00;94.50;;;;;;4992375;28;20535;-46
2024/04/07 06:09:29;;;;;;;2.70;1.17;;;17.00;94.40;;;;;;4996466;28;20847;-46
2024/04/07 06:11:57;;;;;;;1.97;1.10;;;17.00;94.30;;;;;;5003830;28;21034;-46
2024/04/07 06:14:23;;;;;;;1.80;0.90;;;17.00;94.40;;;;;;4994258;28;20445;-46
2024/04/07 06:16:50;;;;;;;1.43;1.10;;;17.00;94.50;;;;;;5002924;28;21066;-46
2024/04/07 06:19:16;;;;;;;1.70;1.30;;;16.90;94.30;;;;;;5001748;28;20560;-46
2024/04/07 06:21:44;;;;;;;1.77;1.10;;;17.00;94.50;;;;;;4992533;28;20532;-46
2024/04/07 06:24:10;;;;;;;2.00;1.37;;;16.90;94.40;;;;;;5006073;28;20471;-46
2024/04/07 06:26:37;;;;;;;1.90;1.03;;;17.00;94.50;;;;;;5007913;28;20440;-46
2024/04/07 06:29:04;;;;;;;1.70;1.00;;;17.00;94.60;;;;;;4994889;28;21085;-46
2024/04/07 06:31:34;;;;;;;2.93;1.40;;;17.00;94.60;;;;;;4993248;28;20449;-46
2024/04/07 06:34:00;;;;;;;2.13;0.77;;;17.00;94.60;;;;;;4997026;28;20461;-46
2024/04/07 06:36:27;;;;;;;1.63;1.30;;;17.00;94.70;;;;;;4995055;28;20951;-46
2024/04/07 06:38:54;;;;;;;2.10;1.10;;;17.00;94.70;;;;;;5000414;28;20522;-46
2024/04/07 06:41:21;;;;;;;2.17;1.47;;;17.00;94.70;;;;;;5000099;28;20462;-46
2024/04/07 06:43:48;;;;;;;1.63;1.00;;;17.00;94.80;;;;;;4994531;28;20963;-46
2024/04/07 06:46:16;;;;;;;2.53;1.53;;;17.00;94.80;;;;;;4998876;28;20536;-46
2024/04/07 06:48:43;;;;;;;1.60;1.00;;;17.00;94.80;;;;;;4990980;28;20525;-46
2024/04/07 06:51:09;;;;;;;1.93;1.20;;;17.00;94.80;;;;;;5005638;28;20517;-46
2024/04/07 06:53:36;;;;;;;1.40;1.00;;;17.00;94.80;;;;;;4999931;28;20436;-46
2024/04/07 06:56:03;;;;;;;1.53;0.90;;;17.00;94.80;;;;;;5002492;28;20528;-45
2024/04/07 06:58:31;;;;;;;1.80;0.90;;;17.00;94.80;;;;;;4995182;28;20947;-46
2024/04/07 07:00:59;;;;;;;2.03;0.90;;;17.00;94.80;;;;;;4996419;28;20458;-46
2024/04/07 07:03:27;;;;;;;1.10;0.80;;;17.00;94.80;;;;;;5006264;28;20932;-46
2024/04/07 07:05:54;;;;;;;1.53;1.10;;;17.00;94.80;;;;;;4993171;28;20429;-46
2024/04/07 07:08:21;;;;;;;1.60;1.00;;;17.00;94.80;;;;;;4991257;28;20980;-46
2024/04/07 07:10:58;;;;;;;1.27;0.83;;;17.00;94.80;;;;;;4994472;28;20520;-46
2024/04/07 07:13:26;;;;;;;1.67;1.00;;;17.00;94.70;;;;;;4995956;28;20441;-46
2024/04/07 07:15:53;;;;;;;1.93;1.10;;;16.90;94.70;;;;;;5003393;28;20524;-46
2024/04/07 07:18:20;;;;;;;3.00;0.90;;;17.00;94.70;;;;;;5001905;28;20473;-46
2024/04/07 07:20:47;;;;;;;4.33;1.47;;;16.90;94.80;;;;;;4989661;28;20946;-46
2024/04/07 07:23:16;;;;;;;1.70;1.20;;;16.90;94.70;;;;;;4995260;28;20440;-46
2024/04/07 07:25:43;;;;;;;2.47;1.10;;;17.00;94.80;;;;;;4999133;28;20550;-46
2024/04/07 07:28:10;;;;;;;1.57;0.80;;;16.90;94.90;;;;;;4999407;28;20466;-46
2024/04/07 07:30:37;;;;;;;2.47;1.10;;;16.90;94.80;;;;;;4998634;28;20537;-46
2024/04/07 07:33:05;;;;;;;1.93;1.03;;;16.90;94.60;;;;;;5007753;28;20484;-46
2024/04/07 07:35:32;;;;;;;2.03;0.97;;;16.90;94.80;;;;;;4999456;28;20464;-46
2024/04/07 07:38:00;;;;;;;2.07;1.03;;;16.90;94.90;;;;;;5007221;28;20435;-46
2024/04/07 07:40:26;;;;;;;2.57;1.20;;;17.00;94.90;;;;;;4991516;28;20469;-46
2024/04/07 07:42:54;;;;;;;1.23;0.70;;;17.00;94.90;;;;;;4992393;28;20967;-46
2024/04/07 07:45:20;;;;;;;2.57;1.47;;;16.90;94.90;;;;;;4996573;28;20895;-47
2024/04/07 07:47:48;;;;;;;1.50;1.17;;;16.90;94.90;;;;;;5007501;28;20949;-46
2024/04/07 07:50:14;;;;;;;2.83;0.90;;;16.90;94.90;;;;;;4994368;28;20485;-46
2024/04/07 07:52:41;;;;;;;1.30;0.93;;;17.00;94.90;;;;;;4991553;28;21009;-46
2024/04/07 07:55:09;;;;;;;2.70;1.30;;;17.00;95.00;;;;;;5004279;28;20877;-46
2024/04/07 07:57:36;;;;;;;3.77;1.33;;;17.00;95.40;;;;;;5006510;28;20451;-46
2024/04/07 08:00:04;;;;;;;2.03;1.40;;;17.00;94.80;;;;;;5003023;28;20569;-45
2024/04/07 08:02:36;;;;;;;2.17;0.87;;;17.00;94.70;;;;;;4991622;28;20425;-46
2024/04/07 08:05:04;;;;;;;2.27;1.10;;;16.90;94.60;;;;;;4994263;28;20433;-47
2024/04/07 08:07:31;;;;;;;2.17;1.37;;;17.00;94.70;;;;;;5005602;28;20480;-46
2024/04/07 08:09:57;;;;;;;1.57;1.00;;;17.00;94.70;;;;;;5001520;28;20442;-47
2024/04/07 08:12:26;;;;;;;1.57;1.00;;;17.00;94.20;;;;;;4994686;28;20460;-46
2024/04/07 08:14:52;;;;;;;1.87;0.80;;;17.00;94.60;;;;;;5004047;28;20435;-46
2024/04/07 08:17:19;;;;;;;1.37;0.80;;;17.00;94.70;;;;;;4989730;28;20978;-47
2024/04/07 08:19:47;;;;;;;1.30;0.87;;;17.00;94.70;;;;;;5001254;28;20557;-47
2024/04/07 08:22:14;;;;;;;1.33;0.83;;;17.00;94.70;;;;;;4994260;28;20442;-46
2024/04/07 08:24:41;;;;;;;2.57;1.30;;;17.00;94.70;;;;;;5000241;28;20445;-46
2024/04/07 08:27:08;;;;;;;1.80;1.10;;;17.00;94.70;;;;;;4999802;28;20964;-46
2024/04/07 08:29:37;;;;;;;1.87;0.90;;;17.00;94.70;;;;;;5004400;28;20551;-46
2024/04/07 08:32:05;;;;;;;1.40;0.90;;;17.00;94.70;;;;;;4996030;28;20878;-46
2024/04/07 08:34:31;;;;;;;3.10;0.83;;;17.00;94.70;;;;;;4995175;28;20521;-48
2024/04/07 08:36:58;;;;;;;1.70;1.10;;;17.00;94.60;;;;;;4994560;28;20537;-47
2024/04/07 08:39:24;;;;;;;2.53;1.17;;;17.00;94.60;;;;;;4988420;28;20466;-46
2024/04/07 08:41:51;;;;;;;2.97;1.20;;;17.00;94.60;;;;;;4989833;28;20422;-46
2024/04/07 08:44:19;;;;;;;1.43;0.73;;;17.00;94.60;;;;;;4992556;28;20500;-46
2024/04/07 08:46:48;;;;;;;1.47;0.90;;;17.00;94.70;;;;;;4997260;28;20525;-46
2024/04/07 08:49:15;;;;;;;2.03;0.90;;;17.00;94.60;;;;;;5000291;28;20975;-46
2024/04/07 08:51:44;;;;;;;1.83;0.80;;;17.00;94.40;;;;;;4993083;28;20425;-46
2024/04/07 08:54:12;;;;;;;2.23;1.10;;;17.00;94.50;;;;;;5001770;28;20536;-46
2024/04/07 08:56:40;;;;;;;1.13;0.60;;;17.00;94.60;;;;;;5001349;28;20441;-46
2024/04/07 08:59:06;;;;;;;1.10;0.73;;;17.00;94.50;;;;;;5009782;28;20531;-46
2024/04/07 09:01:33;;;;;;;1.80;1.00;;;17.00;94.50;;;;;;4993312;28;20524;-48
2024/04/07 09:04:02;;;;;;;1.33;0.77;;;17.00;94.40;;;;;;5004455;28;20532;-47
2024/04/07 09:06:30;;;;;;;4.10;1.10;;;17.00;94.40;;;;;;5001873;28;20433;-47
2024/04/07 09:08:58;;;;;;;1.10;0.80;;;17.00;94.20;;;;;;5002241;28;20461;-45
2024/04/07 09:11:26;;;;;;;2.40;1.20;;;17.00;94.40;;;;;;5001600;28;20473;-47
2024/04/07 09:13:52;;;;;;;2.50;1.10;;;17.00;94.20;;;;;;4996834;28;20961;-47
2024/04/07 09:16:19;;;;;;;1.80;0.90;;;17.00;94.30;;;;;;4992991;28;20476;-46
2024/04/07 09:18:46;;;;;;;4.53;0.87;;;17.00;94.30;;;;;;5006167;28;20444;-47
2024/04/07 09:21:19;;;;;;;1.10;0.70;;;17.00;94.40;;;;;;4997620;28;20429;-46
2024/04/07 09:23:46;;;;;;;1.80;1.00;;;17.00;94.30;;;;;;5002270;28;20524;-46
2024/04/07 09:26:14;;;;;;;1.53;0.80;;;17.00;94.40;;;;;;5009227;28;20428;-47
2024/04/07 09:28:40;;;;;;;1.47;0.90;;;17.00;94.40;;;;;;4994946;28;20886;-46
2024/04/07 09:31:08;;;;;;;2.43;0.87;;;17.00;93.90;;;;;;5001089;28;20437;-47
2024/04/07 09:33:34;;;;;;;1.40;0.70;;;17.00;94.10;;;;;;5002534;28;20605;-47
2024/04/07 09:36:02;;;;;;;1.57;0.80;;;17.00;94.30;;;;;;4993283;28;21025;-46
2024/04/07 09:38:29;;;;;;;1.77;0.93;;;17.00;94.30;;;;;;5001822;28;20524;-47
2024/04/07 09:40:58;;;;;;;2.80;1.13;;;17.00;94.20;;;;;;4992499;28;20477;-47
2024/04/07 09:43:24;;;;;;;1.90;1.20;;;17.00;94.30;;;;;;4978778;28;20503;-46
2024/04/07 09:45:53;;;;;;;1.30;0.80;;;17.00;94.10;;;;;;4997907;28;20977;-46
2024/04/07 09:48:21;;;;;;;2.00;0.80;;;17.00;94.30;;;;;;4998287;28;20461;-47
2024/04/07 09:50:54;;;;;;;1.50;0.70;;;17.00;94.30;;;;;;4996755;28;20892;-46
2024/04/07 09:53:22;;;;;;;1.53;0.90;;;17.00;94.30;;;;;;5002769;28;20433;-47
2024/04/07 09:55:51;;;;;;;3.50;1.03;;;17.00;94.30;;;;;;5000815;28;20458;-48
2024/04/07 09:58:22;;;;;;;1.80;0.73;;;17.00;94.30;;;;;;4998392;28;20516;-47
2024/04/07 10:00:50;;;;;;;1.80;1.00;;;17.00;94.80;;;;;;5021734;28;21081;-46
2024/04/07 10:03:16;;;;;;;1.23;0.70;;;17.00;94.40;;;;;;4999294;28;20517;-46
2024/04/07 10:05:43;;;;;;;1.10;0.73;;;17.00;94.50;;;;;;4999852;28;21043;-47
2024/04/07 10:08:10;;;;;;;2.73;1.30;;;17.00;94.30;;;;;;4999587;28;20499;-47
2024/04/07 10:10:37;;;;;;;1.77;0.97;;;17.00;94.20;;;;;;5000270;28;20573;-49
2024/04/07 10:13:08;;;;;;;1.43;0.80;;;17.00;94.20;;;;;;4993831;28;20441;-46
2024/04/07 10:15:37;;;;;;;1.13;0.80;;;17.00;94.30;;;;;;5016709;28;20487;-47
2024/04/07 10:18:11;;;;;;;4.73;1.33;;;17.00;94.40;;;;;;4998846;28;20843;-46
2024/04/07 10:20:39;;;;;;;1.10;0.70;;;17.10;94.10;;;;;;4999678;28;20457;-46
2024/04/07 10:23:07;;;;;;;4.67;1.10;;;17.10;94.10;;;;;;4998104;28;20530;-47
2024/04/07 10:25:34;;;;;;;2.53;1.10;;;17.10;94.00;;;;;;4992699;28;20522;-46
2024/04/07 10:28:01;;;;;;;1.87;1.30;;;17.00;93.90;;;;;;5000359;28;20963;-48
2024/04/07 10:30:31;;;;;;;6.00;1.40;;;17.00;93.60;;;;;;5009367;28;20449;-46
2024/04/07 10:33:02;;;;;;;4.50;1.10;;;17.10;92.40;;;;;;4988072;28;20854;-46
2024/04/07 10:35:29;;;;;;;1.90;0.90;;;17.20;92.00;;;;;;4999615;28;20437;-46
2024/04/07 10:37:56;;;;;;;4.47;1.23;;;17.20;91.70;;;;;;5006049;28;20506;-47
2024/04/07 10:40:23;;;;;;;3.53;1.40;;;17.20;92.30;;;;;;4999713;28;20501;-46
2024/04/07 10:42:49;;;;;;;2.43;1.00;;;17.20;92.50;;;;;;4994477;28;20540;-48
2024/04/07 10:45:20;;;;;;;6.23;1.20;;;17.20;92.70;;;;;;4991945;28;20532;-46
2024/04/07 10:47:49;;;;;;;5.80;1.17;;;17.20;92.70;;;;;;5000839;28;20889;-46
2024/04/07 10:50:19;;;;;;;4.77;1.70;;;17.10;92.80;;;;;;5001228;28;20955;-48
2024/04/07 10:52:46;;;;;;;3.30;1.60;;;17.10;93.10;;;;;;4992255;28;20446;-46
2024/04/07 10:55:13;;;;;;;3.33;1.03;;;17.10;93.10;;;;;;5002569;28;20445;-46
2024/04/07 10:57:39;;;;;;;3.37;1.40;;;17.10;93.00;;;;;;4997296;28;20958;-46
2024/04/07 11:00:08;;;;;;;3.30;1.00;;;17.10;93.20;;;;;;4995452;28;20550;-47
2024/04/07 11:02:39;;;;;;;2.73;1.17;;;17.10;93.10;;;;;;5003824;28;20445;-46
2024/04/07 11:05:10;;;;;;;1.50;1.00;;;17.10;93.30;;;;;;5005024;28;20830;-47
2024/04/07 11:07:36;;;;;;;2.17;1.17;;;17.10;93.40;;;;;;4997971;28;21013;-46
2024/04/07 11:10:03;;;;;;;2.33;1.30;;;17.10;93.30;;;;;;4992791;28;20463;-46
2024/04/07 11:12:29;;;;;;;1.83;0.80;;;17.10;93.50;;;;;;4991558;28;20480;-48
2024/04/07 11:14:56;;;;;;;1.27;0.90;;;17.10;93.60;;;;;;4992188;28;20525;-48
2024/04/07 11:17:23;;;;;;;1.73;1.03;;;17.10;93.60;;;;;;5004274;28;21008;-46
2024/04/07 11:19:51;;;;;;;3.47;1.50;;;17.10;93.70;;;;;;5001096;28;21069;-46
2024/04/07 11:22:19;;;;;;;3.70;0.80;;;17.10;93.80;;;;;;5003818;28;20465;-48
2024/04/07 11:24:46;;;;;;;3.93;1.10;;;17.10;93.70;;;;;;5005793;28;20518;-46
2024/04/07 11:27:13;;;;;;;3.50;1.17;;;17.10;93.80;;;;;;5004365;28;20564;-47
2024/04/07 11:29:41;;;;;;;6.50;1.40;;;17.20;93.80;;;;;;4996345;28;20568;-47
2024/04/07 11:32:12;;;;;;;2.33;1.13;;;17.20;93.10;;;;;;4999342;28;20438;-46
2024/04/07 11:34:39;;;;;;;3.13;1.20;;;17.20;93.10;;;;;;5018752;28;20437;-47
2024/04/07 11:37:05;;;;;;;1.63;0.73;;;17.20;93.20;;;;;;4991815;28;20456;-46
2024/04/07 11:39:34;;;;;;;2.53;1.03;;;17.20;93.30;;;;;;4992470;28;20477;-48
2024/04/07 11:42:05;;;;;;;3.00;1.67;;;17.20;93.50;;;;;;4990230;28;20445;-46
2024/04/07 11:44:32;;;;;;;1.97;1.03;;;17.20;93.60;;;;;;4990887;28;20504;-48
2024/04/07 11:46:59;;;;;;;2.03;1.00;;;17.20;93.40;;;;;;4990761;28;20962;-46
2024/04/07 11:49:26;;;;;;;1.40;0.83;;;17.20;93.30;;;;;;5005961;28;20489;-47
2024/04/07 11:51:52;;;;;;;1.83;1.13;;;17.20;93.40;;;;;;4990864;28;20525;-47
2024/04/07 11:54:19;;;;;;;2.50;1.10;;;17.20;93.40;;;;;;4996693;28;20453;-46
2024/04/07 11:56:48;;;;;;;2.13;1.03;;;17.10;93.30;;;;;;4996674;28;20887;-46
2024/04/07 11:59:15;;;;;;;2.87;0.90;;;17.20;93.10;;;;;;4990450;28;20454;-46
2024/04/07 12:01:42;;;;;;;3.33;0.77;;;17.20;93.30;;;;;;4997241;28;20496;-46
2024/04/07 12:04:09;;;;;;;2.90;1.10;;;17.20;93.40;;;;;;4989953;28;20521;-47
2024/04/07 12:06:35;;;;;;;1.70;1.00;;;17.20;93.50;;;;;;5004144;28;20537;-46
2024/04/07 12:09:07;;;;;;;1.80;0.80;;;17.20;93.50;;;;;;4992546;28;20493;-46
2024/04/07 12:11:33;;;;;;;1.97;0.93;;;17.20;93.50;;;;;;4998871;28;20465;-46
2024/04/07 12:14:03;;;;;;;3.00;1.20;;;17.20;93.50;;;;;;4996147;28;20460;-46
2024/04/07 12:16:29;;;;;;;1.53;0.80;;;17.20;93.50;;;;;;4993456;28;20461;-46
2024/04/07 12:18:56;;;;;;;1.73;0.80;;;17.20;93.60;;;;;;4990004;28;20529;-46
2024/04/07 12:21:22;;;;;;;1.93;0.90;;;17.20;93.20;;;;;;4997565;28;20470;-47
2024/04/07 12:23:49;;;;;;;1.87;0.80;;;17.20;93.50;;;;;;4996784;28;20433;-46
2024/04/07 12:26:16;;;;;;;1.90;1.03;;;17.20;93.50;;;;;;4998979;28;20442;-47
2024/04/07 12:28:43;;;;;;;2.50;1.00;;;17.20;93.20;;;;;;4998240;28;20472;-47
2024/04/07 12:31:10;;;;;;;3.60;0.90;;;17.20;93.60;;;;;;4998036;28;20449;-47
2024/04/07 12:33:37;;;;;;;2.20;1.00;;;17.20;93.70;;;;;;4991609;28;20783;-47
2024/04/07 12:36:04;;;;;;;3.00;0.90;;;17.20;93.70;;;;;;4991166;28;20453;-46
2024/04/07 12:38:31;;;;;;;2.47;1.10;;;17.30;93.90;;;;;;4990495;28;20592;-47
2024/04/07 12:40:58;;;;;;;4.20;1.60;;;17.30;93.90;;;;;;4997210;28;20886;-47
2024/04/07 12:43:25;;;;;;;1.80;1.03;;;17.30;93.80;;;;;;4994743;28;20496;-46
2024/04/07 12:45:51;;;;;;;3.60;1.07;;;17.30;93.70;;;;;;5004117;28;20548;-48
2024/04/07 12:48:20;;;;;;;2.93;1.07;;;17.30;93.90;;;;;;4997705;28;20430;-47
2024/04/07 12:50:47;;;;;;;2.43;1.23;;;17.30;93.90;;;;;;4989049;28;20453;-47
2024/04/07 12:53:14;;;;;;;1.70;0.90;;;17.30;94.00;;;;;;4975673;28;20529;-47